Time;durP1;ratioP1;P1;durP2;ratioP2;P2;SDS_P1;SDS_P2;PMS_P1;PMS_P2;Temp;Humidity;BMP_temperature;BMP_pressure;BME280_temperature;BME280_humidity;BME280_pressure;Samples;Min_cycle;Max_cycle;Signal;HPM_P1;HPM_P2
2024/04/12 00:01:10;;;;;;;9.63;4.82;;;;;;;10.53;69.83;94189.72;2029009;70;20168;-75
2024/04/12 00:03:39;;;;;;;8.45;4.97;;;;;;;10.45;70.62;94186.97;2029120;70;20168;-75
2024/04/12 00:06:20;;;;;;;7.22;4.43;;;;;;;10.47;70.31;94184.31;2025194;70;20156;-75
2024/04/12 00:08:50;;;;;;;7.05;4.57;;;;;;;10.49;69.42;94181.69;2028858;70;20144;-76
2024/04/12 00:11:20;;;;;;;11.20;4.68;;;;;;;10.45;69.97;94184.16;2028998;70;20141;-76
2024/04/12 00:13:47;;;;;;;10.93;4.78;;;;;;;10.41;70.26;94187.38;2028488;70;20169;-69
2024/04/12 00:16:17;;;;;;;8.10;4.20;;;;;;;10.28;70.04;94184.84;2028820;70;20188;-70
2024/04/12 00:18:47;;;;;;;8.75;4.25;;;;;;;10.30;69.88;94190.63;2028426;70;20160;-70
2024/04/12 00:21:14;;;;;;;6.47;4.00;;;;;;;10.20;70.19;94186.91;2027829;70;20153;-70
2024/04/12 00:23:40;;;;;;;10.57;3.92;;;;;;;10.29;69.79;94185.56;2027529;70;20168;-70
2024/04/12 00:26:11;;;;;;;6.50;4.05;;;;;;;10.17;71.04;94185.25;2028478;70;20156;-75
2024/04/12 00:28:37;;;;;;;8.18;4.20;;;;;;;10.21;70.24;94176.41;2028793;70;20172;-70
2024/04/12 00:31:06;;;;;;;7.57;4.15;;;;;;;10.18;71.00;94179.06;2028421;70;20586;-69
2024/04/12 00:33:34;;;;;;;12.40;3.90;;;;;;;10.10;70.55;94169.16;2028116;70;20152;-70
2024/04/12 00:36:11;;;;;;;7.32;3.85;;;;;;;10.12;69.75;94170.06;2028636;70;20378;-68
2024/04/12 00:38:41;;;;;;;8.93;4.07;;;;;;;10.06;70.85;94174.44;2028709;70;20630;-72
2024/04/12 00:41:14;;;;;;;10.32;4.90;;;;;;;10.12;71.78;94172.16;2028454;70;20156;-75
2024/04/12 00:43:48;;;;;;;10.25;4.40;;;;;;;10.00;71.48;94159.88;2028547;70;20541;-69
2024/04/12 00:46:18;;;;;;;6.18;3.97;;;;;;;10.03;71.11;94167.13;2028105;70;20205;-70
2024/04/12 00:48:45;;;;;;;9.02;4.00;;;;;;;9.98;71.86;94163.22;2028415;70;20228;-70
2024/04/12 00:51:17;;;;;;;6.78;4.25;;;;;;;10.03;71.69;94162.25;2028814;70;20164;-71
2024/04/12 00:53:46;;;;;;;6.93;3.97;;;;;;;9.90;71.79;94156.94;2028914;70;20152;-70
2024/04/12 00:56:13;;;;;;;7.28;3.97;;;;;;;9.91;72.07;94156.34;2028382;70;20157;-70
2024/04/12 00:58:41;;;;;;;9.23;3.45;;;;;;;10.02;71.47;94154.41;2028763;70;20172;-70
2024/04/12 01:01:15;;;;;;;9.38;3.92;;;;;;;9.86;71.60;94153.75;2028722;70;20164;-71
2024/04/12 01:03:45;;;;;;;8.30;3.92;;;;;;;10.02;71.23;94165.66;2028675;70;20172;-70
2024/04/12 01:06:22;;;;;;;6.63;3.67;;;;;;;9.79;72.08;94137.66;2028108;70;20511;-71
2024/04/12 01:08:51;;;;;;;9.13;4.07;;;;;;;9.91;71.66;94164.78;2028623;70;20614;-70
2024/04/12 01:11:19;;;;;;;12.13;3.58;;;;;;;9.88;71.25;94156.75;2028092;70;20176;-70
2024/04/12 01:13:48;;;;;;;7.97;3.78;;;;;;;9.72;71.88;94160.97;2027407;70;20264;-72
2024/04/12 01:16:15;;;;;;;9.23;3.90;;;;;;;9.74;71.98;94156.25;2027853;70;20237;-72
2024/04/12 01:18:44;;;;;;;10.35;3.95;;;;;;;9.73;71.18;94148.41;2028244;70;20181;-72
2024/04/12 01:21:10;;;;;;;8.60;3.65;;;;;;;9.78;70.93;94150.97;2028286;70;20620;-70
2024/04/12 01:23:43;;;;;;;6.40;3.58;;;;;;;9.75;72.63;94149.31;2028155;70;20239;-72
2024/04/12 01:26:14;;;;;;;8.38;3.83;;;;;;;9.77;71.08;94151.56;2028332;70;20313;-70
2024/04/12 01:28:42;;;;;;;6.57;3.90;;;;;;;9.47;72.65;94144.03;2027957;70;20236;-71
2024/04/12 01:31:14;;;;;;;6.68;3.67;;;;;;;9.66;71.30;94158.34;2024884;70;20560;-75
2024/04/12 01:33:40;;;;;;;7.17;3.30;;;;;;;9.53;71.89;94156.56;2027985;70;20913;-75
2024/04/12 01:36:10;;;;;;;9.85;3.65;;;;;;;9.65;72.25;94168.09;2028108;70;20209;-76
2024/04/12 01:38:39;;;;;;;8.13;3.67;;;;;;;9.65;71.80;94166.03;2028297;70;20232;-74
2024/04/12 01:41:05;;;;;;;7.00;3.60;;;;;;;9.54;72.19;94163.69;2027635;70;20152;-71
2024/04/12 01:43:38;;;;;;;8.48;3.90;;;;;;;9.52;72.90;94173.97;2028115;70;20152;-70
2024/04/12 01:46:10;;;;;;;8.15;4.00;;;;;;;9.54;72.83;94177.00;2028116;70;20276;-69
2024/04/12 01:48:36;;;;;;;5.72;3.30;;;;;;;9.42;72.49;94168.22;2028302;70;20147;-68
2024/04/12 01:51:03;;;;;;;10.52;3.60;;;;;;;9.43;71.83;94175.31;2028051;70;20506;-69
2024/04/12 01:53:36;;;;;;;4.80;3.67;;;;;;;9.47;72.16;94177.75;2028005;70;20153;-68
2024/04/12 01:56:05;;;;;;;5.55;3.50;;;;;;;9.41;73.09;94175.16;2027851;70;20191;-68
2024/04/12 01:58:34;;;;;;;7.38;3.60;;;;;;;9.37;72.66;94172.72;2027604;70;20164;-72
2024/04/12 02:01:02;;;;;;;7.32;3.85;;;;;;;9.38;72.83;94167.84;2027713;70;20141;-70
2024/04/12 02:03:30;;;;;;;8.27;4.20;;;;;;;9.22;74.41;94178.41;2028325;70;20225;-72
2024/04/12 02:06:04;;;;;;;8.50;3.90;;;;;;;9.23;73.56;94165.84;2028247;70;20563;-71
2024/04/12 02:08:32;;;;;;;13.13;3.60;;;;;;;9.29;72.29;94186.06;2028222;70;20151;-72
2024/04/12 02:11:05;;;;;;;5.50;3.70;;;;;;;9.35;72.15;94188.69;2028198;70;20574;-72
2024/04/12 02:13:35;;;;;;;7.22;3.83;;;;;;;9.32;73.20;94193.38;2028029;70;20151;-71
2024/04/12 02:16:02;;;;;;;6.47;3.60;;;;;;;9.37;72.22;94191.66;2028216;70;20141;-71
2024/04/12 02:18:32;;;;;;;8.63;3.67;;;;;;;9.45;72.91;94191.66;2027543;70;20639;-71
2024/04/12 02:21:10;;;;;;;8.60;4.13;;;;;;;9.27;73.24;94190.75;2027381;70;20148;-70
2024/04/12 02:23:37;;;;;;;6.88;3.70;;;;;;;9.37;72.74;94191.66;2028001;70;20156;-71
2024/04/12 02:26:05;;;;;;;6.38;3.65;;;;;;;9.32;73.17;94193.38;2028108;70;20188;-71
2024/04/12 02:28:36;;;;;;;6.00;3.55;;;;;;;9.24;73.27;94189.06;2027215;70;20610;-71
2024/04/12 02:31:08;;;;;;;4.95;3.40;;;;;;;9.30;71.33;94179.16;2027940;70;20144;-71
2024/04/12 02:33:35;;;;;;;6.85;3.38;;;;;;;9.34;72.27;94184.34;2027780;70;20545;-73
2024/04/12 02:36:11;;;;;;;12.32;3.72;;;;;;;9.19;72.10;94190.03;2027825;70;20570;-74
2024/04/12 02:38:42;;;;;;;9.90;4.03;;;;;;;9.13;72.05;94182.56;2028167;70;20569;-74
2024/04/12 02:41:14;;;;;;;6.45;3.92;;;;;;;9.18;71.55;94180.13;2027928;70;20648;-75
2024/04/12 02:43:45;;;;;;;;;;;;;;;9.21;72.42;94179.75;2028017;70;20141;-70
2024/04/12 02:46:11;;;;;;;5.43;3.55;;;;;;;9.06;72.81;94188.94;2027826;70;20053;-74
2024/04/12 02:48:43;;;;;;;5.75;3.58;;;;;;;9.13;73.41;94191.00;2027801;70;20630;-76
2024/04/12 02:51:12;;;;;;;6.68;3.50;;;;;;;9.20;72.86;94199.94;2027915;70;20205;-74
2024/04/12 02:53:39;;;;;;;6.97;3.92;;;;;;;8.99;73.72;94198.16;2027872;70;20241;-74
2024/04/12 02:56:12;;;;;;;7.03;3.67;;;;;;;9.08;72.77;94199.63;2028194;70;20149;-73
2024/04/12 02:58:42;;;;;;;9.15;3.40;;;;;;;8.99;72.13;94200.22;2028165;70;20141;-74
2024/04/12 03:01:19;;;;;;;8.20;3.83;;;;;;;8.84;73.22;94196.13;2028301;70;20189;-76
2024/04/12 03:03:58;;;;;;;10.38;4.10;;;;;;;9.10;71.97;94188.56;2028318;70;20653;-75
2024/04/12 03:06:35;;;;;;;10.43;4.25;;;;;;;9.09;72.08;94189.88;2028623;70;20141;-75
2024/04/12 03:09:01;;;;;;;9.18;4.35;;;;;;;8.96;72.16;94176.03;2028590;70;20613;-75
2024/04/12 03:11:34;;;;;;;8.75;4.22;;;;;;;8.96;73.07;94190.84;2028385;70;20559;-75
2024/04/12 03:14:12;;;;;;;;;;;;;;;8.75;73.55;94165.03;2028399;70;20164;-71
2024/04/12 03:16:42;;;;;;;7.00;4.10;;;;;;;8.97;73.06;94195.13;2028365;70;20081;-72
2024/04/12 03:19:10;;;;;;;8.45;4.00;;;;;;;8.99;72.87;94200.22;2028160;70;20176;-70
2024/04/12 03:21:38;;;;;;;7.65;4.10;;;;;;;9.06;72.15;94196.63;2027868;70;20203;-71
2024/04/12 03:24:09;;;;;;;6.90;3.92;;;;;;;8.92;72.68;94190.47;2028114;70;20156;-72
2024/04/12 03:26:35;;;;;;;9.48;4.10;;;;;;;9.08;72.13;94202.44;2027924;70;20153;-76
2024/04/12 03:29:05;;;;;;;5.32;3.35;;;;;;;9.06;73.05;94202.22;2027435;70;20248;-74
2024/04/12 03:31:33;;;;;;;8.35;3.90;;;;;;;9.07;72.37;94206.53;2028263;70;20159;-74
2024/04/12 03:34:06;;;;;;;8.93;3.58;;;;;;;9.14;72.21;94203.72;2028384;70;20196;-72
2024/04/12 03:41:50;;;;;;;13.07;3.90;;;;;;;8.33;74.46;94210.31;2028819;70;20189;-70
2024/04/12 03:44:20;;;;;;;12.73;4.25;;;;;;;8.73;73.64;94207.72;2028477;70;20171;-70
2024/04/12 03:46:50;;;;;;;6.20;3.85;;;;;;;8.63;73.22;94218.78;2028393;70;20152;-73
2024/04/12 03:49:20;;;;;;;7.18;3.75;;;;;;;8.62;73.48;94219.34;2028467;70;20192;-74
2024/04/12 03:51:48;;;;;;;14.07;5.45;;;;;;;8.71;72.64;94218.78;2028182;70;20168;-73
2024/04/12 03:54:18;;;;;;;9.57;3.53;;;;;;;8.80;70.65;94214.66;2028453;70;20236;-70
2024/04/12 03:56:56;;;;;;;8.38;3.70;;;;;;;8.52;72.91;94216.34;2028542;70;20236;-72
2024/04/12 03:59:24;;;;;;;7.03;3.80;;;;;;;8.54;73.35;94224.94;2028464;70;20141;-71
2024/04/12 04:01:54;;;;;;;8.20;3.83;;;;;;;8.54;73.28;94221.41;2028633;70;20144;-72
2024/04/12 04:04:25;;;;;;;9.30;4.15;;;;;;;8.58;72.66;94210.53;2028640;70;20141;-71
2024/04/12 04:06:55;;;;;;;8.68;4.20;;;;;;;8.55;73.53;94228.50;2028519;70;20153;-71
2024/04/12 04:09:22;;;;;;;5.47;4.00;;;;;;;8.52;74.40;94224.00;2028516;70;20159;-71
2024/04/12 04:11:53;;;;;;;7.13;3.72;;;;;;;8.61;73.63;94226.25;2028457;70;20175;-70
2024/04/12 04:14:19;;;;;;;6.97;4.45;;;;;;;8.59;73.25;94231.69;2028298;70;20152;-71
2024/04/12 04:16:50;;;;;;;7.75;4.00;;;;;;;8.59;73.00;94218.41;2028669;70;20184;-71
2024/04/12 04:19:31;;;;;;;7.75;4.03;;;;;;;8.59;72.46;94226.06;2028747;70;20149;-72
2024/04/12 04:22:04;;;;;;;9.45;4.32;;;;;;;8.56;73.33;94233.53;2028733;70;20183;-71
2024/04/12 04:24:37;;;;;;;9.63;4.30;;;;;;;8.53;73.22;94223.47;2028620;70;20160;-73
2024/04/12 04:27:08;;;;;;;8.70;4.10;;;;;;;8.47;73.77;94224.94;2028649;70;20168;-74
2024/04/12 04:29:35;;;;;;;8.32;4.28;;;;;;;8.41;73.62;94213.91;2028007;70;20144;-72
2024/04/12 04:32:00;;;;;;;7.63;3.70;;;;;;;8.44;72.79;94226.81;2030752;70;20188;-71
2024/04/12 04:34:27;;;;;;;6.43;4.00;;;;;;;8.43;73.07;94230.16;2028632;70;20184;-71
2024/04/12 04:36:56;;;;;;;6.38;4.05;;;;;;;8.40;73.94;94237.66;2028392;70;20182;-74
2024/04/12 04:39:23;;;;;;;9.80;4.47;;;;;;;8.40;74.03;94230.00;2028354;70;20248;-75
2024/04/12 04:41:51;;;;;;;8.52;4.55;;;;;;;8.35;73.14;94232.97;2027991;70;20157;-74
2024/04/12 04:44:17;;;;;;;8.20;4.53;;;;;;;8.27;74.01;94235.00;2028263;70;20171;-72
2024/04/12 04:46:47;;;;;;;13.82;5.38;;;;;;;8.33;73.23;94215.91;2028494;70;20247;-73
2024/04/12 04:49:13;;;;;;;33.53;16.98;;;;;;;8.36;74.87;94231.66;2028502;70;20163;-72
2024/04/12 04:51:40;;;;;;;20.38;9.88;;;;;;;8.41;73.40;94225.13;2028498;70;20491;-72
2024/04/12 04:54:13;;;;;;;15.05;7.22;;;;;;;8.40;73.29;94215.97;2028435;70;20221;-73
2024/04/12 04:56:42;;;;;;;15.60;6.60;;;;;;;8.50;72.70;94221.75;2028422;70;20225;-74
2024/04/12 04:59:09;;;;;;;16.58;8.82;;;;;;;8.43;73.83;94221.75;2028145;70;20149;-74
2024/04/12 05:01:35;;;;;;;21.33;10.80;;;;;;;8.46;73.03;94221.38;2028453;70;20744;-73
2024/04/12 05:04:01;;;;;;;26.35;14.88;;;;;;;8.38;74.12;94218.59;2028563;70;20240;-73
2024/04/12 05:06:27;;;;;;;31.48;16.13;;;;;;;8.27;74.11;94206.94;2028100;70;20170;-72
2024/04/12 05:08:55;;;;;;;21.55;11.55;;;;;;;8.53;73.15;94231.88;2028553;70;20129;-71
2024/04/12 05:11:21;;;;;;;17.63;8.50;;;;;;;8.45;73.98;94225.50;2028460;70;20232;-74
2024/04/12 05:13:50;;;;;;;12.25;6.75;;;;;;;8.61;73.00;94241.06;2028228;70;20576;-72
2024/04/12 05:16:19;;;;;;;13.63;6.43;;;;;;;8.58;73.07;94239.38;2028418;70;20153;-73
2024/04/12 05:18:47;;;;;;;14.95;6.63;;;;;;;8.27;74.83;94246.22;2028511;70;20188;-74
2024/04/12 05:21:17;;;;;;;12.82;6.07;;;;;;;8.43;73.88;94247.78;2028515;70;20212;-75
2024/04/12 05:23:43;;;;;;;14.70;5.47;;;;;;;8.28;74.02;94228.06;2028522;70;20228;-74
2024/04/12 05:26:10;;;;;;;10.30;4.88;;;;;;;8.40;73.92;94252.44;2028467;70;20560;-73
2024/04/12 05:28:36;;;;;;;9.82;4.57;;;;;;;8.37;74.48;94247.94;2028348;70;20164;-73
2024/04/12 05:31:11;;;;;;;10.57;4.80;;;;;;;8.50;73.44;94249.09;2028482;70;20704;-72
2024/04/12 05:33:43;;;;;;;15.98;6.85;;;;;;;8.51;73.91;94251.31;2028279;70;20252;-72
2024/04/12 05:36:10;;;;;;;12.23;5.10;;;;;;;8.65;73.86;94249.09;2027722;70;20153;-72
2024/04/12 05:38:36;;;;;;;8.85;4.93;;;;;;;8.45;73.90;94250.78;2028472;70;20277;-71
2024/04/12 05:41:04;;;;;;;9.80;4.68;;;;;;;8.26;75.03;94251.09;2028430;70;20160;-71
2024/04/12 05:43:31;;;;;;;8.82;4.40;;;;;;;8.65;71.94;94249.81;2028217;70;20157;-72
2024/04/12 05:45:57;;;;;;;15.00;5.22;;;;;;;8.62;73.48;94250.22;2028407;70;20590;-71
2024/04/12 05:48:24;;;;;;;9.75;5.03;;;;;;;8.79;72.86;94249.66;2028512;70;20173;-71
2024/04/12 05:50:55;;;;;;;10.88;5.03;;;;;;;8.86;70.85;94254.53;2028572;70;20152;-73
2024/04/12 05:53:26;;;;;;;7.25;4.75;;;;;;;8.76;73.32;94248.72;2028242;70;20168;-73
2024/04/12 05:56:20;;;;;;;14.00;5.18;;;;;;;8.73;73.25;94241.41;2027897;70;20175;-74
2024/04/12 05:58:37;;;;;;;9.60;5.28;;;;;;;8.75;73.83;94254.88;2027503;70;20158;-74
2024/04/12 06:01:07;;;;;;;10.18;4.78;;;;;;;8.79;74.12;94258.06;2027765;70;20152;-74
2024/04/12 06:03:42;;;;;;;8.68;4.78;;;;;;;8.82;73.35;94257.69;2028286;70;20141;-72
2024/04/12 06:06:08;;;;;;;12.60;5.40;;;;;;;8.83;73.56;94245.16;2028491;70;20169;-73
2024/04/12 06:08:37;;;;;;;9.88;5.95;;;;;;;8.91;73.55;94242.34;2028522;70;20487;-73
2024/04/12 06:11:08;;;;;;;21.27;7.90;;;;;;;8.85;74.69;94242.53;2028360;70;20502;-74
2024/04/12 06:13:38;;;;;;;13.77;7.18;;;;;;;8.89;73.83;94239.38;2028501;70;20232;-75
2024/04/12 06:16:04;;;;;;;13.82;6.97;;;;;;;9.13;72.67;94247.19;2028559;70;20180;-76
2024/04/12 06:18:30;;;;;;;10.88;6.70;;;;;;;9.06;73.65;94239.50;2028474;70;20141;-74
2024/04/12 06:20:55;;;;;;;12.40;6.93;;;;;;;9.23;72.31;94246.59;2030325;70;20248;-73
2024/04/12 06:23:22;;;;;;;11.50;6.45;;;;;;;9.30;71.80;94249.41;2028515;70;20175;-74
2024/04/12 06:25:49;;;;;;;20.63;7.72;;;;;;;9.14;73.70;94245.13;2028585;70;20204;-73
2024/04/12 06:28:19;;;;;;;14.48;6.70;;;;;;;9.32;73.24;94243.22;2028320;70;20232;-73
2024/04/12 06:30:49;;;;;;;12.80;6.10;;;;;;;9.45;72.21;94237.38;2028195;70;20160;-74
2024/04/12 06:33:25;;;;;;;14.80;7.60;;;;;;;9.47;72.91;94233.97;2028213;70;20148;-74
2024/04/12 06:36:11;;;;;;;17.95;8.48;;;;;;;9.49;72.41;94242.59;2028223;70;20617;-74
2024/04/12 06:38:38;;;;;;;19.10;8.60;;;;;;;9.62;72.06;94234.69;2028388;70;20518;-74
2024/04/12 06:41:10;;;;;;;15.15;8.52;;;;;;;9.60;72.71;94225.31;2027664;70;20149;-73
2024/04/12 06:43:37;;;;;;;12.02;7.15;;;;;;;9.72;72.08;94234.84;2028246;70;20159;-74
2024/04/12 06:46:11;;;;;;;10.43;6.90;;;;;;;9.85;72.25;94231.78;2027844;70;20145;-72
2024/04/12 06:48:49;;;;;;;16.05;6.65;;;;;;;10.10;72.13;94229.00;2028085;70;20236;-75
2024/04/12 06:51:16;;;;;;;16.20;6.93;;;;;;;10.41;72.42;94235.22;2028106;70;20153;-72
2024/04/12 06:53:44;;;;;;;11.02;6.00;;;;;;;10.71;70.78;94230.69;2028205;70;20235;-74
2024/04/12 06:56:15;;;;;;;10.68;5.32;;;;;;;10.97;69.60;94234.22;2028428;70;20494;-74
2024/04/12 06:58:43;;;;;;;15.50;5.15;;;;;;;11.23;70.00;94230.78;2028255;70;20133;-73
2024/04/12 07:01:10;;;;;;;8.07;4.07;;;;;;;11.44;69.75;94233.94;2028483;70;20149;-73
2024/04/12 07:03:37;;;;;;;8.93;4.50;;;;;;;11.64;71.68;94228.47;2028543;70;20163;-74
2024/04/12 07:06:07;;;;;;;6.85;4.00;;;;;;;11.80;70.37;94226.97;2030570;70;20179;-73
2024/04/12 07:08:35;;;;;;;14.98;3.90;;;;;;;12.12;67.72;94228.09;2028383;70;20149;-72
2024/04/12 07:11:06;;;;;;;13.35;4.30;;;;;;;12.34;69.24;94229.09;2028630;70;20152;-74
2024/04/12 07:13:33;;;;;;;7.95;3.47;;;;;;;12.67;67.19;94212.59;2028531;70;20161;-72
2024/04/12 07:16:03;;;;;;;11.48;4.38;;;;;;;12.58;65.80;94221.78;2028603;70;20152;-73
2024/04/12 07:18:30;;;;;;;11.57;5.30;;;;;;;12.83;64.34;94218.75;2028858;70;20149;-72
2024/04/12 07:21:14;;;;;;;10.65;5.07;;;;;;;13.01;65.81;94213.75;2028925;70;20612;-71
2024/04/12 07:23:48;;;;;;;12.93;5.68;;;;;;;13.19;64.68;94223.59;2028978;70;20204;-73
2024/04/12 07:26:24;;;;;;;11.75;4.97;;;;;;;13.39;63.84;94225.16;2028424;70;20335;-73
2024/04/12 07:29:01;;;;;;;14.95;4.97;;;;;;;13.41;63.07;94216.06;2028627;70;20172;-72
2024/04/12 07:31:34;;;;;;;10.50;4.20;;;;;;;14.03;60.40;94222.03;2028677;70;20248;-72
2024/04/12 07:34:01;;;;;;;11.07;4.85;;;;;;;14.12;60.32;94221.28;2028717;70;20153;-72
2024/04/12 07:36:33;;;;;;;12.20;4.40;;;;;;;14.44;62.01;94224.94;2028604;70;20165;-73
2024/04/12 07:39:02;;;;;;;9.68;4.45;;;;;;;14.54;60.58;94227.78;2028795;70;20192;-74
2024/04/12 07:41:48;;;;;;;12.18;4.63;;;;;;;14.84;58.61;94220.63;2028953;70;20272;-75
2024/04/12 07:44:15;;;;;;;8.38;4.60;;;;;;;14.72;57.87;94200.69;2028702;70;20148;-74
2024/04/12 07:46:51;;;;;;;12.40;4.40;;;;;;;15.16;57.64;94213.59;2028518;70;20141;-73
2024/04/12 07:49:18;;;;;;;10.88;4.57;;;;;;;15.51;58.06;94217.41;2028363;70;20187;-71
2024/04/12 07:51:47;;;;;;;12.25;4.07;;;;;;;15.61;55.72;94219.44;2028321;70;20622;-72
2024/04/12 07:54:13;;;;;;;12.00;3.80;;;;;;;15.88;55.71;94202.06;2028436;70;20578;-71
2024/04/12 07:57:07;;;;;;;10.60;4.20;;;;;;;15.95;56.54;94218.16;2028530;70;20129;-72
2024/04/12 07:59:37;;;;;;;12.52;4.40;;;;;;;16.29;54.92;94210.38;2028530;70;20157;-74
2024/04/12 08:02:05;;;;;;;6.68;3.45;;;;;;;15.72;55.44;94201.75;2028736;70;20153;-73
2024/04/12 08:04:38;;;;;;;11.68;3.40;;;;;;;16.04;54.58;94211.66;2028584;70;20495;-72
2024/04/12 08:07:13;;;;;;;11.10;3.90;;;;;;;16.55;53.81;94205.59;2028765;70;20153;-73
2024/04/12 08:09:46;;;;;;;13.25;3.17;;;;;;;17.06;54.37;94203.06;2028830;70;20520;-74
2024/04/12 08:12:17;;;;;;;12.30;3.00;;;;;;;17.03;53.32;94207.88;2028724;70;20184;-74
2024/04/12 08:14:55;;;;;;;9.88;3.05;;;;;;;17.17;54.83;94217.28;2028442;70;20530;-74
2024/04/12 08:17:27;;;;;;;13.10;3.25;;;;;;;16.76;52.51;94216.91;2027755;70;20152;-74
2024/04/12 08:19:55;;;;;;;9.80;2.60;;;;;;;17.99;52.88;94210.69;2028189;70;20528;-72
2024/04/12 08:22:25;;;;;;;6.93;2.90;;;;;;;17.99;50.78;94217.13;2028332;70;20228;-74
2024/04/12 08:24:52;;;;;;;13.68;3.50;;;;;;;18.56;50.69;94211.03;2028055;70;20224;-73
2024/04/12 08:27:24;;;;;;;9.27;2.95;;;;;;;18.27;49.47;94208.72;2028386;70;20634;-73
2024/04/12 08:29:51;;;;;;;5.35;2.80;;;;;;;19.09;50.13;94219.63;2028221;70;20575;-72
2024/04/12 08:32:27;;;;;;;7.60;2.88;;;;;;;18.83;49.18;94209.63;2028287;70;20149;-72
2024/04/12 08:34:57;;;;;;;9.18;2.97;;;;;;;18.95;49.20;94193.91;2028339;70;20232;-73
2024/04/12 08:37:30;;;;;;;9.60;2.90;;;;;;;19.68;47.72;94193.41;2028462;70;20152;-72
2024/04/12 08:39:57;;;;;;;9.95;2.90;;;;;;;20.06;47.46;94192.47;2028500;70;20191;-73
2024/04/12 08:42:29;;;;;;;8.27;2.45;;;;;;;19.77;47.17;94181.75;2028354;70;20137;-74
2024/04/12 08:45:13;;;;;;;6.82;2.75;;;;;;;20.52;46.97;94193.28;2028368;70;20141;-75
2024/04/12 08:48:01;;;;;;;10.07;2.92;;;;;;;20.85;45.91;94188.31;2027983;70;20576;-76
2024/04/12 08:50:31;;;;;;;8.07;2.50;;;;;;;21.11;44.90;94189.53;2028337;70;20152;-72
2024/04/12 08:52:58;;;;;;;7.68;2.58;;;;;;;20.99;44.29;94189.00;2028469;70;20153;-75
2024/04/12 08:55:24;;;;;;;9.90;2.72;;;;;;;21.47;44.55;94178.25;2028169;70;20153;-75
2024/04/12 08:57:56;;;;;;;8.70;2.88;;;;;;;19.76;45.28;94173.84;2028247;70;20169;-74
2024/04/12 09:00:28;;;;;;;10.95;3.00;;;;;;;21.37;44.22;94172.81;2028247;70;20156;-75
2024/04/12 09:03:24;;;;;;;5.97;2.60;;;;;;;20.96;43.44;94179.56;2028489;70;20217;-75
2024/04/12 09:05:52;;;;;;;10.50;2.67;;;;;;;22.41;42.14;94176.47;2028797;70;20151;-75
2024/04/12 09:08:18;;;;;;;8.27;2.95;;;;;;;22.42;43.06;94175.06;2028223;70;20170;-75
2024/04/12 09:10:44;;;;;;;9.13;2.40;;;;;;;21.57;41.30;94172.97;2028603;70;20242;-75
2024/04/12 09:13:15;;;;;;;5.20;2.00;;;;;;;22.79;41.88;94163.63;2028976;70;20197;-76
2024/04/12 09:15:45;;;;;;;7.10;2.33;;;;;;;23.45;40.59;94171.81;2022770;70;20157;-76
2024/04/12 09:18:15;;;;;;;8.35;2.50;;;;;;;23.32;41.22;94174.25;2028627;70;20163;-76
2024/04/12 09:20:44;;;;;;;9.85;2.78;;;;;;;23.06;41.30;94164.66;2025271;70;20201;-74
2024/04/12 09:23:14;;;;;;;8.45;2.40;;;;;;;22.84;41.01;94165.25;2028766;70;20652;-72
2024/04/12 09:25:58;;;;;;;8.57;2.60;;;;;;;23.08;41.00;94171.19;2025368;70;20199;-75
2024/04/12 09:28:26;;;;;;;7.68;2.65;;;;;;;24.84;38.42;94175.06;2028466;70;20239;-75
2024/04/12 09:33:50;;;;;;;6.30;2.20;;;;;;;25.01;37.21;94161.88;2028537;70;20168;-74
2024/04/12 09:36:39;;;;;;;6.68;2.33;;;;;;;25.24;37.14;94160.41;2029048;70;20141;-76
2024/04/12 09:39:14;;;;;;;7.13;2.70;;;;;;;24.77;37.81;94149.63;2028841;70;20233;-76
2024/04/12 09:42:02;;;;;;;13.05;2.38;;;;;;;25.63;36.71;94152.13;2028689;70;20478;-75
2024/04/12 09:44:38;;;;;;;6.15;2.40;;;;;;;23.47;38.35;94140.28;2028089;70;20184;-75
2024/04/12 10:37:28;;;;;;;6.63;2.00;;;;;;;31.09;30.72;94117.19;2027782;70;20269;-76
2024/04/12 10:39:55;;;;;;;6.88;1.85;;;;;;;31.07;30.43;94114.28;2028079;70;20141;-76
2024/04/12 10:42:30;;;;;;;8.23;2.08;;;;;;;31.49;29.30;94113.06;2027687;70;20151;-76
2024/04/12 10:45:01;;;;;;;6.18;2.20;;;;;;;31.28;28.76;94095.50;2028622;70;20149;-77
2024/04/12 10:47:28;;;;;;;6.32;2.08;;;;;;;33.90;27.94;94110.78;2028682;70;20155;-77
2024/04/12 10:49:57;;;;;;;9.98;2.00;;;;;;;33.79;27.43;94103.56;2028287;70;20590;-77
2024/04/12 10:52:29;;;;;;;10.00;1.88;;;;;;;34.75;26.05;94100.75;2027846;70;20316;-76
2024/04/12 10:55:01;;;;;;;5.15;2.13;;;;;;;32.46;28.94;94092.19;2028616;70;20526;-74
2024/04/12 10:57:30;;;;;;;5.82;1.90;;;;;;;33.51;27.69;94095.66;2028696;70;20584;-74
2024/04/12 11:00:00;;;;;;;11.65;2.45;;;;;;;34.29;27.51;94093.78;2028739;70;20129;-74
2024/04/12 11:02:30;;;;;;;10.70;2.10;;;;;;;35.96;25.10;94099.47;2028907;70;20153;-74
2024/04/12 11:05:22;;;;;;;7.97;2.13;;;;;;;38.00;24.57;94087.84;2028554;70;20149;-77
2024/04/12 11:07:52;;;;;;;9.05;2.15;;;;;;;36.29;24.39;94079.94;2028321;70;20464;-75
2024/04/12 11:10:37;;;;;;;6.93;2.10;;;;;;;34.10;26.69;94074.94;2028420;70;20149;-78
2024/04/12 11:13:08;;;;;;;7.40;2.08;;;;;;;37.50;25.10;94074.94;2028547;70;20147;-74
2024/04/12 11:32:05;;;;;;;8.98;1.63;;;;;;;40.86;20.02;94050.56;2028371;70;20200;-74
2024/04/12 11:34:32;;;;;;;7.82;1.80;;;;;;;43.79;18.90;94061.31;2028092;70;20203;-74
2024/04/12 11:37:05;;;;;;;7.95;1.95;;;;;;;44.86;18.89;94057.78;2027924;70;20580;-74
2024/04/12 11:39:35;;;;;;;9.45;2.15;;;;;;;43.73;20.05;94050.47;2027973;70;20188;-72
2024/04/12 11:42:03;;;;;;;7.90;1.90;;;;;;;45.69;17.72;94049.84;2028632;70;20275;-74
2024/04/12 11:44:35;;;;;;;6.95;1.58;;;;;;;45.46;17.22;94053.28;2028536;70;20195;-75
2024/04/12 11:47:03;;;;;;;8.77;1.70;;;;;;;45.51;17.36;94048.53;2027916;70;20141;-74
2024/04/12 11:49:41;;;;;;;8.88;1.50;;;;;;;46.70;16.72;94051.75;2027693;70;20176;-75
2024/04/12 11:52:17;;;;;;;6.30;1.65;;;;;;;40.88;19.34;94036.47;2028460;70;20647;-74
2024/04/12 11:54:51;;;;;;;7.70;1.88;;;;;;;47.20;16.86;94040.69;2027834;70;20140;-76
2024/04/12 11:57:19;;;;;;;5.63;1.40;;;;;;;50.01;15.04;94030.72;2028065;70;20503;-76
2024/04/12 11:59:46;;;;;;;6.80;1.70;;;;;;;50.33;15.20;94036.66;2028041;70;20165;-75
2024/04/12 12:02:14;;;;;;;7.20;1.73;;;;;;;48.53;15.93;94018.28;2028479;70;20160;-76
2024/04/12 12:04:41;;;;;;;5.30;1.70;;;;;;;49.03;15.03;94019.47;2028209;70;20216;-75
2024/04/12 12:07:09;;;;;;;5.70;1.40;;;;;;;46.56;15.22;94014.56;2028544;70;20164;-78
2024/04/12 12:09:37;;;;;;;9.98;2.00;;;;;;;49.07;15.57;94019.91;2028531;70;20148;-76
2024/04/12 12:12:10;;;;;;;14.50;2.00;;;;;;;46.70;16.33;94006.38;2027842;70;20147;-77
2024/04/12 12:14:43;;;;;;;7.15;1.70;;;;;;;47.28;16.06;93995.47;2028372;70;20145;-75
2024/04/12 12:17:16;;;;;;;6.30;1.90;;;;;;;47.13;16.61;93990.38;2028566;70;20498;-74
2024/04/12 12:19:42;;;;;;;9.38;1.80;;;;;;;48.26;15.25;93999.09;2028511;70;20165;-75
2024/04/12 12:22:10;;;;;;;8.65;1.80;;;;;;;49.31;14.81;93996.63;2028312;70;20155;-74
2024/04/12 12:24:37;;;;;;;4.05;1.50;;;;;;;46.37;15.74;93990.34;2028394;70;20145;-75
2024/04/12 12:27:07;;;;;;;5.22;1.48;;;;;;;51.34;14.73;93997.69;2028455;70;20567;-73
2024/04/12 12:29:35;;;;;;;8.70;1.45;;;;;;;52.18;13.38;93997.84;2028394;70;20240;-73
2024/04/12 12:32:01;;;;;;;8.02;1.52;;;;;;;53.41;13.90;93993.75;2028214;70;20199;-75
2024/04/12 12:34:27;;;;;;;6.28;1.60;;;;;;;49.61;14.29;93978.84;2028591;70;20175;-76
2024/04/12 12:36:55;;;;;;;5.70;1.58;;;;;;;48.47;15.73;93977.59;2028635;70;20205;-78
2024/04/12 12:39:21;;;;;;;10.18;1.40;;;;;;;53.01;13.94;93980.56;2028378;70;20140;-76
2024/04/12 12:41:47;;;;;;;7.05;2.00;;;;;;;54.15;14.24;93973.03;2028561;70;20209;-78
2024/04/12 12:44:18;;;;;;;7.00;1.60;;;;;;;55.76;13.73;93976.34;2027867;70;20240;-78
2024/04/12 12:46:44;;;;;;;6.97;1.65;;;;;;;55.37;12.96;93964.22;2028704;70;20141;-79
2024/04/12 12:49:10;;;;;;;5.28;1.52;;;;;;;55.84;13.37;93963.50;2028531;70;20141;-78
2024/04/12 12:51:40;;;;;;;5.38;1.40;;;;;;;55.63;12.22;93951.94;2028442;70;20155;-78
2024/04/12 12:54:07;;;;;;;10.88;1.80;;;;;;;53.81;12.42;93936.06;2028490;70;20164;-76
2024/04/12 12:56:33;;;;;;;7.95;1.42;;;;;;;53.87;12.30;93937.13;2027916;70;20227;-76
2024/04/12 12:59:01;;;;;;;6.20;1.60;;;;;;;51.46;12.77;93930.75;2027808;70;20160;-77
2024/04/12 13:01:47;;;;;;;6.70;1.33;;;;;;;52.57;13.08;93925.63;2028027;70;20149;-75
2024/04/12 13:04:12;;;;;;;6.38;2.03;;;;;;;55.89;12.95;93921.53;2028670;70;20225;-75